sensor_id;sensor_type;location;lat;lon;timestamp;pressure;altitude;pressure_sealevel;temperature;humidity
62544;BME280;48597;49.030;1.822;2023-04-30T00:02:07;101297.41;;;19.44;47.49
62544;BME280;48597;49.030;1.822;2023-04-30T00:04:32;101294.53;;;19.44;47.74
62544;BME280;48597;49.030;1.822;2023-04-30T00:06:58;101293.75;;;19.43;47.59
62544;BME280;48597;49.030;1.822;2023-04-30T00:09:23;101299.47;;;19.43;47.58
62544;BME280;48597;49.030;1.822;2023-04-30T00:11:48;101295.78;;;19.43;47.51
62544;BME280;48597;49.030;1.822;2023-04-30T00:14:14;101301.50;;;19.43;47.57
62544;BME280;48597;49.030;1.822;2023-04-30T00:16:40;101302.75;;;19.42;47.52
62544;BME280;48597;49.030;1.822;2023-04-30T00:19:05;101296.22;;;19.41;47.37
62544;BME280;48597;49.030;1.822;2023-04-30T00:21:31;101301.13;;;19.41;47.44
62544;BME280;48597;49.030;1.822;2023-04-30T00:23:57;101301.13;;;19.41;47.43
62544;BME280;48597;49.030;1.822;2023-04-30T00:26:24;101297.47;;;19.40;47.49
62544;BME280;48597;49.030;1.822;2023-04-30T00:28:49;101296.66;;;19.40;47.44
62544;BME280;48597;49.030;1.822;2023-04-30T00:31:15;101296.66;;;19.40;47.49
62544;BME280;48597;49.030;1.822;2023-04-30T00:33:40;101288.50;;;19.38;47.40
62544;BME280;48597;49.030;1.822;2023-04-30T00:36:05;101288.50;;;19.38;47.45
62544;BME280;48597;49.030;1.822;2023-04-30T00:38:31;101287.72;;;19.38;47.35
62544;BME280;48597;49.030;1.822;2023-04-30T00:40:56;101294.22;;;19.38;47.41
62544;BME280;48597;49.030;1.822;2023-04-30T00:43:22;101282.41;;;19.36;47.38
62544;BME280;48597;49.030;1.822;2023-04-30T00:45:47;101278.31;;;19.37;47.52
62544;BME280;48597;49.030;1.822;2023-04-30T00:48:12;101285.28;;;19.36;47.39
62544;BME280;48597;49.030;1.822;2023-04-30T00:50:38;101279.22;;;19.34;47.39
62544;BME280;48597;49.030;1.822;2023-04-30T00:53:04;101282.06;;;19.34;47.39
62544;BME280;48597;49.030;1.822;2023-04-30T00:55:30;101277.13;;;19.35;47.31
62544;BME280;48597;49.030;1.822;2023-04-30T00:57:55;101269.84;;;19.34;47.37
62544;BME280;48597;49.030;1.822;2023-04-30T01:00:21;101277.59;;;19.33;47.29
62544;BME280;48597;49.030;1.822;2023-04-30T01:02:47;101271.88;;;19.33;47.19
62544;BME280;48597;49.030;1.822;2023-04-30T01:05:13;101278.84;;;19.32;47.35
62544;BME280;48597;49.030;1.822;2023-04-30T01:07:39;101280.91;;;19.32;47.32
62544;BME280;48597;49.030;1.822;2023-04-30T01:10:14;101282.94;;;19.31;47.31
62544;BME280;48597;49.030;1.822;2023-04-30T01:15:37;101271.50;;;19.31;47.34
62544;BME280;48597;49.030;1.822;2023-04-30T01:18:25;101267.03;;;19.30;47.26
62544;BME280;48597;49.030;1.822;2023-04-30T01:20:55;101275.63;;;19.30;47.34
62544;BME280;48597;49.030;1.822;2023-04-30T01:23:53;101274.00;;;19.29;47.32
62544;BME280;48597;49.030;1.822;2023-04-30T01:26:47;101267.47;;;19.28;47.34
62544;BME280;48597;49.030;1.822;2023-04-30T01:29:18;101268.78;;;19.24;47.47
62544;BME280;48597;49.030;1.822;2023-04-30T01:31:43;101276.91;;;19.25;47.46
62544;BME280;48597;49.030;1.822;2023-04-30T01:34:09;101279.78;;;19.25;47.51
62544;BME280;48597;49.030;1.822;2023-04-30T01:40:13;101274.06;;;19.25;47.34
62544;BME280;48597;49.030;1.822;2023-04-30T01:45:43;101273.69;;;19.23;47.50
62544;BME280;48597;49.030;1.822;2023-04-30T01:48:49;101270.00;;;19.23;47.37
62544;BME280;48597;49.030;1.822;2023-04-30T01:51:30;101274.13;;;19.22;47.41
62544;BME280;48597;49.030;1.822;2023-04-30T01:53:59;101272.88;;;19.23;47.27
62544;BME280;48597;49.030;1.822;2023-04-30T01:56:31;101275.72;;;19.23;47.30
62544;BME280;48597;49.030;1.822;2023-04-30T01:59:00;101273.31;;;19.21;47.24
62544;BME280;48597;49.030;1.822;2023-04-30T02:01:31;101276.97;;;19.22;47.39
62544;BME280;48597;49.030;1.822;2023-04-30T02:03:57;101273.31;;;19.21;47.33
62544;BME280;48597;49.030;1.822;2023-04-30T02:06:24;101265.19;;;19.20;47.38
62544;BME280;48597;49.030;1.822;2023-04-30T02:08:53;101259.47;;;19.20;47.33
62544;BME280;48597;49.030;1.822;2023-04-30T02:11:18;101268.06;;;19.20;47.33
62544;BME280;48597;49.030;1.822;2023-04-30T02:13:44;101270.09;;;19.19;47.25
62544;BME280;48597;49.030;1.822;2023-04-30T02:16:09;101257.88;;;19.19;47.34
62544;BME280;48597;49.030;1.822;2023-04-30T02:18:35;101257.88;;;19.19;47.16
62544;BME280;48597;49.030;1.822;2023-04-30T02:21:00;101263.59;;;19.19;47.34
62544;BME280;48597;49.030;1.822;2023-04-30T02:23:25;101265.63;;;19.18;47.33
62544;BME280;48597;49.030;1.822;2023-04-30T02:25:51;101257.50;;;19.17;47.23
62544;BME280;48597;49.030;1.822;2023-04-30T02:28:16;101263.22;;;19.17;47.33
62544;BME280;48597;49.030;1.822;2023-04-30T02:30:41;101266.06;;;19.17;47.27
62544;BME280;48597;49.030;1.822;2023-04-30T02:33:07;101265.25;;;19.16;47.38
62544;BME280;48597;49.030;1.822;2023-04-30T02:35:36;101266.06;;;19.17;47.22
62544;BME280;48597;49.030;1.822;2023-04-30T02:38:01;101272.22;;;19.15;47.26
62544;BME280;48597;49.030;1.822;2023-04-30T02:40:27;101271.41;;;19.15;47.28
62544;BME280;48597;49.030;1.822;2023-04-30T02:42:52;101270.59;;;19.14;47.50
62544;BME280;48597;49.030;1.822;2023-04-30T02:45:19;101273.44;;;19.14;47.22
62544;BME280;48597;49.030;1.822;2023-04-30T02:47:44;101278.34;;;19.14;47.34
62544;BME280;48597;49.030;1.822;2023-04-30T02:50:10;101271.03;;;19.13;47.29
62544;BME280;48597;49.030;1.822;2023-04-30T02:52:35;101278.78;;;19.12;47.23
62544;BME280;48597;49.030;1.822;2023-04-30T02:55:00;101275.13;;;19.12;47.25
62544;BME280;48597;49.030;1.822;2023-04-30T02:57:26;101276.75;;;19.13;47.56
62544;BME280;48597;49.030;1.822;2023-04-30T02:59:51;101269.41;;;19.12;47.16
62544;BME280;48597;49.030;1.822;2023-04-30T03:02:16;101262.06;;;19.11;47.13
62544;BME280;48597;49.030;1.822;2023-04-30T03:04:45;101271.47;;;19.11;47.19
62544;BME280;48597;49.030;1.822;2023-04-30T03:07:11;101268.59;;;19.11;47.20
62544;BME280;48597;49.030;1.822;2023-04-30T03:09:36;101263.31;;;19.10;47.42
62544;BME280;48597;49.030;1.822;2023-04-30T03:12:01;101271.09;;;19.09;47.16
62544;BME280;48597;49.030;1.822;2023-04-30T03:14:27;101266.63;;;19.08;47.16
62544;BME280;48597;49.030;1.822;2023-04-30T03:16:52;101273.94;;;19.09;47.07
62544;BME280;48597;49.030;1.822;2023-04-30T03:19:18;101267.41;;;19.09;46.89
62544;BME280;48597;49.030;1.822;2023-04-30T03:21:46;101267.41;;;19.09;46.87
62544;BME280;48597;49.030;1.822;2023-04-30T03:24:11;101265.38;;;19.09;46.70
62544;BME280;48597;49.030;1.822;2023-04-30T03:26:37;101271.88;;;19.10;46.82
62544;BME280;48597;49.030;1.822;2023-04-30T03:29:02;101263.31;;;19.10;46.91
62544;BME280;48597;49.030;1.822;2023-04-30T03:31:27;101265.38;;;19.09;46.65
62544;BME280;48597;49.030;1.822;2023-04-30T03:33:53;101277.59;;;19.10;46.81
62544;BME280;48597;49.030;1.822;2023-04-30T03:36:18;101267.41;;;19.09;46.74
62544;BME280;48597;49.030;1.822;2023-04-30T03:38:43;101267.78;;;19.11;46.69
62544;BME280;48597;49.030;1.822;2023-04-30T03:41:09;101274.31;;;19.11;46.76
62544;BME280;48597;49.030;1.822;2023-04-30T03:43:35;101273.50;;;19.11;46.81
62544;BME280;48597;49.030;1.822;2023-04-30T03:46:01;101274.31;;;19.11;46.69
62544;BME280;48597;49.030;1.822;2023-04-30T03:48:27;101266.13;;;19.13;46.70
62544;BME280;48597;49.030;1.822;2023-04-30T03:50:52;101259.59;;;19.13;46.71
62544;BME280;48597;49.030;1.822;2023-04-30T03:53:18;101258.34;;;19.14;46.74
62544;BME280;48597;49.030;1.822;2023-04-30T03:55:43;101259.59;;;19.13;46.73
62544;BME280;48597;49.030;1.822;2023-04-30T03:58:09;101267.75;;;19.14;46.66
62544;BME280;48597;49.030;1.822;2023-04-30T04:00:34;101255.88;;;19.16;46.74
62544;BME280;48597;49.030;1.822;2023-04-30T04:03:00;101261.97;;;19.18;46.67
62544;BME280;48597;49.030;1.822;2023-04-30T04:05:25;101256.25;;;19.18;46.73
62544;BME280;48597;49.030;1.822;2023-04-30T04:07:51;101257.88;;;19.19;46.64
62544;BME280;48597;49.030;1.822;2023-04-30T04:10:16;101263.16;;;19.20;46.76
62544;BME280;48597;49.030;1.822;2023-04-30T04:12:42;101253.31;;;19.21;46.75
62544;BME280;48597;49.030;1.822;2023-04-30T04:15:07;101257.34;;;19.24;46.76
62544;BME280;48597;49.030;1.822;2023-04-30T04:17:33;101258.53;;;19.26;47.08
62544;BME280;48597;49.030;1.822;2023-04-30T04:19:58;101257.72;;;19.26;46.65
62544;BME280;48597;49.030;1.822;2023-04-30T04:22:24;101261.31;;;19.30;46.71
62544;BME280;48597;49.030;1.822;2023-04-30T04:24:49;101261.31;;;19.30;46.72
62544;BME280;48597;49.030;1.822;2023-04-30T04:27:15;101256.41;;;19.31;46.63
62544;BME280;48597;49.030;1.822;2023-04-30T04:29:41;101268.22;;;19.33;46.92
62544;BME280;48597;49.030;1.822;2023-04-30T04:32:06;101259.22;;;19.34;46.74
62544;BME280;48597;49.030;1.822;2023-04-30T04:34:32;101264.03;;;19.37;46.69
62544;BME280;48597;49.030;1.822;2023-04-30T04:36:57;101268.06;;;19.40;46.72
62544;BME280;48597;49.030;1.822;2023-04-30T04:39:23;101274.59;;;19.40;46.66
62544;BME280;48597;49.030;1.822;2023-04-30T04:41:48;101270.50;;;19.41;46.68
62544;BME280;48597;49.030;1.822;2023-04-30T04:44:13;101275.78;;;19.43;46.71
62544;BME280;48597;49.030;1.822;2023-04-30T04:46:39;101282.69;;;19.45;46.67
62544;BME280;48597;49.030;1.822;2023-04-30T04:49:06;101268.38;;;19.45;46.73
62544;BME280;48597;49.030;1.822;2023-04-30T04:51:32;101285.91;;;19.47;46.34
62544;BME280;48597;49.030;1.822;2023-04-30T04:53:58;101273.19;;;19.48;46.57
62544;BME280;48597;49.030;1.822;2023-04-30T04:56:23;101276.91;;;19.49;46.56
62544;BME280;48597;49.030;1.822;2023-04-30T04:58:48;101284.22;;;19.50;46.62
62544;BME280;48597;49.030;1.822;2023-04-30T05:01:14;101285.84;;;19.51;46.47
62544;BME280;48597;49.030;1.822;2023-04-30T05:03:39;101278.06;;;19.51;46.55
62544;BME280;48597;49.030;1.822;2023-04-30T05:06:04;101276.84;;;19.52;46.46
62544;BME280;48597;49.030;1.822;2023-04-30T05:08:30;101276.41;;;19.54;46.42
62544;BME280;48597;49.030;1.822;2023-04-30T05:10:56;101280.88;;;19.55;46.28
62544;BME280;48597;49.030;1.822;2023-04-30T05:13:21;101295.97;;;19.55;46.22
62544;BME280;48597;49.030;1.822;2023-04-30T05:15:51;101283.31;;;19.56;46.34
62544;BME280;48597;49.030;1.822;2023-04-30T05:18:17;101284.91;;;19.57;46.34
62544;BME280;48597;49.030;1.822;2023-04-30T05:20:42;101289.38;;;19.58;46.26
62544;BME280;48597;49.030;1.822;2023-04-30T05:23:08;101292.25;;;19.58;46.20
62544;BME280;48597;49.030;1.822;2023-04-30T05:25:34;101284.91;;;19.57;46.17
62544;BME280;48597;49.030;1.822;2023-04-30T05:27:59;101290.19;;;19.59;46.23
62544;BME280;48597;49.030;1.822;2023-04-30T05:30:25;101291.00;;;19.59;46.11
62544;BME280;48597;49.030;1.822;2023-04-30T05:32:50;101294.69;;;19.60;46.14
62544;BME280;48597;49.030;1.822;2023-04-30T05:35:18;101289.72;;;19.60;46.17
62544;BME280;48597;49.030;1.822;2023-04-30T05:37:44;101301.97;;;19.61;46.12
62544;BME280;48597;49.030;1.822;2023-04-30T05:40:10;101302.78;;;19.61;46.20
62544;BME280;48597;49.030;1.822;2023-04-30T05:42:36;101302.78;;;19.61;46.19
62544;BME280;48597;49.030;1.822;2023-04-30T05:45:02;101305.66;;;19.61;46.02
62544;BME280;48597;49.030;1.822;2023-04-30T05:47:28;101307.25;;;19.62;46.01
62544;BME280;48597;49.030;1.822;2023-04-30T05:49:53;101300.75;;;19.62;45.98
62544;BME280;48597;49.030;1.822;2023-04-30T05:52:18;101298.69;;;19.62;46.02
62544;BME280;48597;49.030;1.822;2023-04-30T05:54:44;101296.63;;;19.63;46.02
62544;BME280;48597;49.030;1.822;2023-04-30T05:57:09;101293.78;;;19.63;45.97
62544;BME280;48597;49.030;1.822;2023-04-30T05:59:35;101292.97;;;19.62;46.10
62544;BME280;48597;49.030;1.822;2023-04-30T06:02:00;101297.88;;;19.62;46.01
62544;BME280;48597;49.030;1.822;2023-04-30T06:04:25;101292.97;;;19.62;46.20
62544;BME280;48597;49.030;1.822;2023-04-30T06:06:51;101294.59;;;19.63;46.13
62544;BME280;48597;49.030;1.822;2023-04-30T06:09:16;101288.06;;;19.63;46.02
62544;BME280;48597;49.030;1.822;2023-04-30T06:11:41;101292.97;;;19.62;46.13
62544;BME280;48597;49.030;1.822;2023-04-30T06:14:09;101292.16;;;19.62;46.02
62544;BME280;48597;49.030;1.822;2023-04-30T06:16:37;101290.09;;;19.62;46.14
62544;BME280;48597;49.030;1.822;2023-04-30T06:19:02;101290.09;;;19.62;46.18
62544;BME280;48597;49.030;1.822;2023-04-30T06:21:27;101297.88;;;19.62;45.81
62544;BME280;48597;49.030;1.822;2023-04-30T06:23:53;101295.81;;;19.62;46.05
62544;BME280;48597;49.030;1.822;2023-04-30T06:26:19;101286.44;;;19.62;45.83
62544;BME280;48597;49.030;1.822;2023-04-30T06:28:44;101296.63;;;19.63;46.02
62544;BME280;48597;49.030;1.822;2023-04-30T06:31:10;101287.25;;;19.62;45.87
62544;BME280;48597;49.030;1.822;2023-04-30T06:33:36;101302.34;;;19.63;45.99
62544;BME280;48597;49.030;1.822;2023-04-30T06:36:02;101291.34;;;19.61;46.03
62544;BME280;48597;49.030;1.822;2023-04-30T06:38:28;101306.03;;;19.63;46.02
62544;BME280;48597;49.030;1.822;2023-04-30T06:40:53;101302.34;;;19.63;45.87
62544;BME280;48597;49.030;1.822;2023-04-30T06:43:19;101295.81;;;19.62;45.87
62544;BME280;48597;49.030;1.822;2023-04-30T06:45:44;101303.59;;;19.62;45.98
62544;BME280;48597;49.030;1.822;2023-04-30T06:48:10;101297.06;;;19.61;46.11
62544;BME280;48597;49.030;1.822;2023-04-30T06:50:35;101305.22;;;19.63;45.93
62544;BME280;48597;49.030;1.822;2023-04-30T06:53:08;101302.78;;;19.61;45.95
62544;BME280;48597;49.030;1.822;2023-04-30T06:55:33;101302.78;;;19.61;45.95
62544;BME280;48597;49.030;1.822;2023-04-30T06:57:58;101291.34;;;19.61;45.93
62544;BME280;48597;49.030;1.822;2023-04-30T07:00:24;101303.59;;;19.62;45.95
62544;BME280;48597;49.030;1.822;2023-04-30T07:02:50;101294.22;;;19.61;45.98
62544;BME280;48597;49.030;1.822;2023-04-30T07:05:16;101297.06;;;19.61;46.10
62544;BME280;48597;49.030;1.822;2023-04-30T07:07:42;101292.16;;;19.62;46.01
62544;BME280;48597;49.030;1.822;2023-04-30T07:10:07;101297.06;;;19.61;45.98
62544;BME280;48597;49.030;1.822;2023-04-30T07:12:32;101297.88;;;19.62;46.14
62544;BME280;48597;49.030;1.822;2023-04-30T07:14:58;101301.53;;;19.62;46.02
62544;BME280;48597;49.030;1.822;2023-04-30T07:17:23;101286.44;;;19.62;46.06
62544;BME280;48597;49.030;1.822;2023-04-30T07:19:49;101291.34;;;19.61;45.95
62544;BME280;48597;49.030;1.822;2023-04-30T07:22:14;101286.44;;;19.62;46.12
62544;BME280;48597;49.030;1.822;2023-04-30T07:24:40;101305.22;;;19.63;46.11
62544;BME280;48597;49.030;1.822;2023-04-30T07:27:05;101296.63;;;19.63;46.11
62544;BME280;48597;49.030;1.822;2023-04-30T07:29:32;101292.53;;;19.64;46.03
62544;BME280;48597;49.030;1.822;2023-04-30T07:31:57;101293.78;;;19.63;45.74
62544;BME280;48597;49.030;1.822;2023-04-30T07:34:23;101294.16;;;19.65;45.94
62544;BME280;48597;49.030;1.822;2023-04-30T07:36:49;101293.78;;;19.63;45.93
62544;BME280;48597;49.030;1.822;2023-04-30T07:39:14;101296.19;;;19.65;45.89
62544;BME280;48597;49.030;1.822;2023-04-30T07:41:40;101297.00;;;19.65;45.82
62544;BME280;48597;49.030;1.822;2023-04-30T07:44:05;101299.06;;;19.65;45.83
62544;BME280;48597;49.030;1.822;2023-04-30T07:46:31;101293.34;;;19.65;45.84
62544;BME280;48597;49.030;1.822;2023-04-30T07:48:57;101309.25;;;19.66;45.99
62544;BME280;48597;49.030;1.822;2023-04-30T07:51:22;101295.75;;;19.66;45.90
62544;BME280;48597;49.030;1.822;2023-04-30T07:53:48;101302.28;;;19.67;46.02
62544;BME280;48597;49.030;1.822;2023-04-30T07:56:13;101295.31;;;19.68;45.85
62544;BME280;48597;49.030;1.822;2023-04-30T07:58:38;101292.47;;;19.68;46.02
62544;BME280;48597;49.030;1.822;2023-04-30T08:01:04;101290.41;;;19.68;45.91
62544;BME280;48597;49.030;1.822;2023-04-30T08:03:29;101294.09;;;19.69;45.92
62544;BME280;48597;49.030;1.822;2023-04-30T08:05:54;101288.38;;;19.69;45.89
62544;BME280;48597;49.030;1.822;2023-04-30T08:08:20;101285.50;;;19.69;46.08
62544;BME280;48597;49.030;1.822;2023-04-30T08:10:46;101290.78;;;19.70;45.97
62544;BME280;48597;49.030;1.822;2023-04-30T08:13:11;101281.41;;;19.70;46.06
62544;BME280;48597;49.030;1.822;2023-04-30T08:15:37;101283.00;;;19.71;45.89
62544;BME280;48597;49.030;1.822;2023-04-30T08:18:04;101285.06;;;19.70;45.98
62544;BME280;48597;49.030;1.822;2023-04-30T08:20:31;101282.56;;;19.72;45.80
62544;BME280;48597;49.030;1.822;2023-04-30T08:22:56;101277.66;;;19.73;45.70
62544;BME280;48597;49.030;1.822;2023-04-30T08:25:22;101280.53;;;19.73;45.70
62544;BME280;48597;49.030;1.822;2023-04-30T08:27:47;101281.34;;;19.73;45.72
62544;BME280;48597;49.030;1.822;2023-04-30T08:30:12;101282.13;;;19.74;46.30
62544;BME280;48597;49.030;1.822;2023-04-30T08:32:38;101278.00;;;19.75;46.41
62544;BME280;48597;49.030;1.822;2023-04-30T08:35:04;101282.84;;;19.78;46.61
62544;BME280;48597;49.030;1.822;2023-04-30T08:37:29;101274.72;;;19.76;46.85
62544;BME280;48597;49.030;1.822;2023-04-30T08:39:55;101276.31;;;19.77;46.80
62544;BME280;48597;49.030;1.822;2023-04-30T08:42:24;101280.00;;;19.78;46.78
62544;BME280;48597;49.030;1.822;2023-04-30T08:44:49;101275.09;;;19.78;46.76
62544;BME280;48597;49.030;1.822;2023-04-30T08:47:15;101279.56;;;19.79;46.83
62544;BME280;48597;49.030;1.822;2023-04-30T08:49:42;101273.03;;;19.79;47.01
62544;BME280;48597;49.030;1.822;2023-04-30T08:52:08;101274.66;;;19.80;46.86
62544;BME280;48597;49.030;1.822;2023-04-30T08:54:35;101274.22;;;19.81;47.01
62544;BME280;48597;49.030;1.822;2023-04-30T08:57:01;101276.25;;;19.81;47.14
62544;BME280;48597;49.030;1.822;2023-04-30T08:59:26;101289.31;;;19.82;47.05
62544;BME280;48597;49.030;1.822;2023-04-30T09:01:52;101289.31;;;19.82;47.14
62544;BME280;48597;49.030;1.822;2023-04-30T09:04:17;101285.22;;;19.83;47.20
62544;BME280;48597;49.030;1.822;2023-04-30T09:06:43;101288.06;;;19.83;46.96
62544;BME280;48597;49.030;1.822;2023-04-30T09:09:11;101286.03;;;19.83;46.88
62544;BME280;48597;49.030;1.822;2023-04-30T09:11:37;101278.25;;;19.84;47.15
62544;BME280;48597;49.030;1.822;2023-04-30T09:14:02;101287.63;;;19.84;47.28
62544;BME280;48597;49.030;1.822;2023-04-30T09:16:29;101285.59;;;19.85;47.25
62544;BME280;48597;49.030;1.822;2023-04-30T09:19:09;101286.41;;;19.85;47.23
62544;BME280;48597;49.030;1.822;2023-04-30T09:21:35;101273.66;;;19.86;47.31
62544;BME280;48597;49.030;1.822;2023-04-30T09:24:03;101283.88;;;19.87;46.93
62544;BME280;48597;49.030;1.822;2023-04-30T09:26:33;101276.91;;;19.88;47.05
62544;BME280;48597;49.030;1.822;2023-04-30T09:28:59;101266.72;;;19.87;47.53
62544;BME280;48597;49.030;1.822;2023-04-30T09:31:26;101272.00;;;19.89;47.33
62544;BME280;48597;49.030;1.822;2023-04-30T09:33:52;101264.22;;;19.89;47.98
62544;BME280;48597;49.030;1.822;2023-04-30T09:36:18;101262.97;;;19.90;48.01
62544;BME280;48597;49.030;1.822;2023-04-30T09:38:44;101269.50;;;19.91;48.48
62544;BME280;48597;49.030;1.822;2023-04-30T09:41:24;101266.63;;;19.91;48.06
62544;BME280;48597;49.030;1.822;2023-04-30T09:43:51;101262.97;;;19.90;48.05
62544;BME280;48597;49.030;1.822;2023-04-30T09:46:21;101269.50;;;19.91;48.03
62544;BME280;48597;49.030;1.822;2023-04-30T09:48:55;101269.88;;;19.93;48.20
62544;BME280;48597;49.030;1.822;2023-04-30T09:51:21;101271.13;;;19.92;48.54
62544;BME280;48597;49.030;1.822;2023-04-30T09:53:46;101266.19;;;19.92;48.50
62544;BME280;48597;49.030;1.822;2023-04-30T09:56:14;101267.81;;;19.93;48.44
62544;BME280;48597;49.030;1.822;2023-04-30T09:58:43;101262.09;;;19.93;48.61
62544;BME280;48597;49.030;1.822;2023-04-30T10:01:14;101262.91;;;19.94;48.72
62544;BME280;48597;49.030;1.822;2023-04-30T10:03:41;101257.19;;;19.94;48.45
62544;BME280;48597;49.030;1.822;2023-04-30T10:06:07;101258.78;;;19.95;48.65
62544;BME280;48597;49.030;1.822;2023-04-30T10:08:38;101260.41;;;19.96;48.47
62544;BME280;48597;49.030;1.822;2023-04-30T10:11:06;101260.41;;;19.96;48.77
62544;BME280;48597;49.030;1.822;2023-04-30T10:13:37;101249.78;;;19.96;48.39
62544;BME280;48597;49.030;1.822;2023-04-30T10:16:18;101256.31;;;19.97;48.60
62544;BME280;48597;49.030;1.822;2023-04-30T10:18:50;101246.09;;;19.96;48.71
62544;BME280;48597;49.030;1.822;2023-04-30T10:21:17;101247.28;;;19.98;48.71
62544;BME280;48597;49.030;1.822;2023-04-30T10:23:43;101240.75;;;19.98;48.01
62544;BME280;48597;49.030;1.822;2023-04-30T10:26:09;101248.09;;;19.99;48.39
62544;BME280;48597;49.030;1.822;2023-04-30T10:28:37;101240.28;;;19.99;48.06
62544;BME280;48597;49.030;1.822;2023-04-30T10:31:03;101239.03;;;20.01;48.12
62544;BME280;48597;49.030;1.822;2023-04-30T10:33:58;101235.38;;;20.00;48.00
62544;BME280;48597;49.030;1.822;2023-04-30T10:36:56;101231.25;;;20.01;48.30
62544;BME280;48597;49.030;1.822;2023-04-30T10:39:25;101231.25;;;20.01;48.31
62544;BME280;48597;49.030;1.822;2023-04-30T10:42:04;101224.28;;;20.02;48.29
62544;BME280;48597;49.030;1.822;2023-04-30T10:44:33;101211.59;;;20.03;48.17
62544;BME280;48597;49.030;1.822;2023-04-30T10:47:03;101212.41;;;20.04;48.09
62544;BME280;48597;49.030;1.822;2023-04-30T10:49:29;101211.16;;;20.05;48.11
62544;BME280;48597;49.030;1.822;2023-04-30T10:51:58;101213.19;;;20.04;48.24
62544;BME280;48597;49.030;1.822;2023-04-30T10:54:27;101216.44;;;20.06;48.15
62544;BME280;48597;49.030;1.822;2023-04-30T10:56:53;101206.22;;;20.05;48.07
62544;BME280;48597;49.030;1.822;2023-04-30T10:59:21;101205.00;;;20.06;48.09
62544;BME280;48597;49.030;1.822;2023-04-30T11:01:59;101207.41;;;20.08;47.88
62544;BME280;48597;49.030;1.822;2023-04-30T11:04:25;101204.53;;;20.08;47.98
62544;BME280;48597;49.030;1.822;2023-04-30T11:09:17;101199.63;;;20.08;48.02
62544;BME280;48597;49.030;1.822;2023-04-30T11:11:46;101204.09;;;20.09;47.92
62544;BME280;48597;49.030;1.822;2023-04-30T11:14:19;101195.88;;;20.11;47.96
62544;BME280;48597;49.030;1.822;2023-04-30T11:16:48;101185.69;;;20.10;48.01
62544;BME280;48597;49.030;1.822;2023-04-30T11:19:14;101185.69;;;20.10;47.83
62544;BME280;48597;49.030;1.822;2023-04-30T11:21:41;101193.03;;;20.11;47.83
62544;BME280;48597;49.030;1.822;2023-04-30T11:24:06;101181.56;;;20.11;47.62
62544;BME280;48597;49.030;1.822;2023-04-30T11:27:06;101176.66;;;20.12;47.55
62544;BME280;48597;49.030;1.822;2023-04-30T11:29:32;101171.75;;;20.12;47.58
62544;BME280;48597;49.030;1.822;2023-04-30T11:32:03;101166.78;;;20.13;47.75
62544;BME280;48597;49.030;1.822;2023-04-30T11:34:29;101177.47;;;20.12;47.62
62544;BME280;48597;49.030;1.822;2023-04-30T11:36:58;101172.53;;;20.13;47.63
62544;BME280;48597;49.030;1.822;2023-04-30T11:39:25;101171.28;;;20.14;47.65
62544;BME280;48597;49.030;1.822;2023-04-30T11:41:53;101163.94;;;20.13;47.59
62544;BME280;48597;49.030;1.822;2023-04-30T11:44:25;101167.59;;;20.13;47.61
62544;BME280;48597;49.030;1.822;2023-04-30T11:46:51;101167.59;;;20.13;47.56
62544;BME280;48597;49.030;1.822;2023-04-30T11:49:16;101169.22;;;20.14;47.66
62544;BME280;48597;49.030;1.822;2023-04-30T11:51:42;101163.50;;;20.14;47.58
62544;BME280;48597;49.030;1.822;2023-04-30T11:54:13;101160.19;;;20.16;47.57
62544;BME280;48597;49.030;1.822;2023-04-30T11:56:38;101156.53;;;20.15;47.68
62544;BME280;48597;49.030;1.822;2023-04-30T11:59:09;101156.06;;;20.17;47.53
62544;BME280;48597;49.030;1.822;2023-04-30T12:01:35;101156.53;;;20.15;47.57
62544;BME280;48597;49.030;1.822;2023-04-30T12:04:01;101151.59;;;20.16;47.56
62544;BME280;48597;49.030;1.822;2023-04-30T12:06:28;101149.53;;;20.16;47.73
62544;BME280;48597;49.030;1.822;2023-04-30T12:08:55;101150.34;;;20.17;47.54
62544;BME280;48597;49.030;1.822;2023-04-30T12:11:22;101150.34;;;20.17;47.68
62544;BME280;48597;49.030;1.822;2023-04-30T12:14:09;101149.53;;;20.16;47.58
62544;BME280;48597;49.030;1.822;2023-04-30T12:16:49;101148.28;;;20.17;47.44
62544;BME280;48597;49.030;1.822;2023-04-30T12:19:16;101147.50;;;20.17;47.72
62544;BME280;48597;49.030;1.822;2023-04-30T12:21:42;101149.53;;;20.16;47.58
62544;BME280;48597;49.030;1.822;2023-04-30T12:24:18;101144.63;;;20.17;47.62
62544;BME280;48597;49.030;1.822;2023-04-30T12:26:44;101154.03;;;20.17;47.55
62544;BME280;48597;49.030;1.822;2023-04-30T12:29:14;101153.56;;;20.19;47.56
62544;BME280;48597;49.030;1.822;2023-04-30T12:31:41;101148.28;;;20.17;47.67
62544;BME280;48597;49.030;1.822;2023-04-30T12:34:08;101147.03;;;20.18;47.57
62544;BME280;48597;49.030;1.822;2023-04-30T12:36:34;101140.50;;;20.18;47.50
62544;BME280;48597;49.030;1.822;2023-04-30T12:39:11;101149.47;;;20.20;47.75
62544;BME280;48597;49.030;1.822;2023-04-30T12:41:40;101154.38;;;20.19;47.53
62544;BME280;48597;49.030;1.822;2023-04-30T12:44:32;101158.84;;;20.20;47.47
62544;BME280;48597;49.030;1.822;2023-04-30T12:47:07;101162.97;;;20.19;47.66
62544;BME280;48597;49.030;1.822;2023-04-30T12:49:34;101146.59;;;20.20;47.92
62544;BME280;48597;49.030;1.822;2023-04-30T12:52:02;101147.41;;;20.20;47.78
62544;BME280;48597;49.030;1.822;2023-04-30T12:54:29;101153.13;;;20.20;47.61
62544;BME280;48597;49.030;1.822;2023-04-30T12:59:27;101156.00;;;20.20;47.69
62544;BME280;48597;49.030;1.822;2023-04-30T13:01:52;101150.28;;;20.20;47.60
62544;BME280;48597;49.030;1.822;2023-04-30T13:04:19;101153.13;;;20.20;47.63
62544;BME280;48597;49.030;1.822;2023-04-30T13:06:45;101147.41;;;20.20;47.56